sensor_id;sensor_type;location;lat;lon;timestamp;pressure;altitude;pressure_sealevel;temperature;humidity
37068;BME280;22982;42.848;25.468;2023-02-10T00:01:27;98322.19;;;-15.05;94.21
37068;BME280;22982;42.848;25.468;2023-02-10T00:06:29;98315.28;;;-14.96;94.45
37068;BME280;22982;42.848;25.468;2023-02-10T00:11:32;98316.72;;;-14.99;93.73
37068;BME280;22982;42.848;25.468;2023-02-10T00:16:53;98319.59;;;-14.83;94.37
37068;BME280;22982;42.848;25.468;2023-02-10T00:21:56;98315.53;;;-15.05;93.85
37068;BME280;22982;42.848;25.468;2023-02-10T00:26:59;98285.75;;;-15.10;93.26
37068;BME280;22982;42.848;25.468;2023-02-10T00:32:01;98305.44;;;-15.16;91.99
37068;BME280;22982;42.848;25.468;2023-02-10T00:37:04;98303.88;;;-15.38;93.60
37068;BME280;22982;42.848;25.468;2023-02-10T00:42:06;98294.94;;;-15.23;94.04
37068;BME280;22982;42.848;25.468;2023-02-10T00:47:09;98293.72;;;-15.16;92.35
37068;BME280;22982;42.848;25.468;2023-02-10T00:52:11;98288.34;;;-15.32;92.15
37068;BME280;22982;42.848;25.468;2023-02-10T00:57:13;98281.19;;;-15.85;93.39
37068;BME280;22982;42.848;25.468;2023-02-10T01:02:16;98267.09;;;-15.71;92.69
37068;BME280;22982;42.848;25.468;2023-02-10T01:07:18;98296.50;;;-15.70;91.74
37068;BME280;22982;42.848;25.468;2023-02-10T01:12:20;98282.19;;;-15.83;92.37
37068;BME280;22982;42.848;25.468;2023-02-10T01:17:23;98275.31;;;-15.74;91.77
37068;BME280;22982;42.848;25.468;2023-02-10T01:22:25;98284.56;;;-15.85;90.34
37068;BME280;22982;42.848;25.468;2023-02-10T01:27:27;98249.75;;;-16.14;90.95
37068;BME280;22982;42.848;25.468;2023-02-10T01:32:30;98283.47;;;-16.44;93.84
37068;BME280;22982;42.848;25.468;2023-02-10T01:37:33;98280.78;;;-16.35;94.46
37068;BME280;22982;42.848;25.468;2023-02-10T01:42:35;98271.59;;;-16.13;94.24
37068;BME280;22982;42.848;25.468;2023-02-10T01:47:42;98284.75;;;-16.27;94.50
37068;BME280;22982;42.848;25.468;2023-02-10T01:52:45;98279.25;;;-16.33;95.50
37068;BME280;22982;42.848;25.468;2023-02-10T01:57:48;98260.97;;;-16.43;95.06
37068;BME280;22982;42.848;25.468;2023-02-10T02:02:56;98279.53;;;-16.41;96.17
37068;BME280;22982;42.848;25.468;2023-02-10T02:08:22;98260.34;;;-16.40;95.46
37068;BME280;22982;42.848;25.468;2023-02-10T02:34:24;98279.06;;;-16.03;92.06
37068;BME280;22982;42.848;25.468;2023-02-10T02:39:31;98229.81;;;-16.34;91.02
37068;BME280;22982;42.848;25.468;2023-02-10T02:44:34;98240.84;;;-16.32;90.34
37068;BME280;22982;42.848;25.468;2023-02-10T02:49:49;98269.00;;;-16.36;91.63
37068;BME280;22982;42.848;25.468;2023-02-10T02:54:55;98259.00;;;-16.47;91.86
37068;BME280;22982;42.848;25.468;2023-02-10T03:00:09;98262.84;;;-16.18;91.70
37068;BME280;22982;42.848;25.468;2023-02-10T03:05:19;98264.69;;;-16.15;91.19
37068;BME280;22982;42.848;25.468;2023-02-10T03:10:23;98234.66;;;-16.14;90.13
37068;BME280;22982;42.848;25.468;2023-02-10T03:15:25;98218.56;;;-16.28;91.62
37068;BME280;22982;42.848;25.468;2023-02-10T03:20:28;98216.28;;;-16.25;89.82
37068;BME280;22982;42.848;25.468;2023-02-10T03:25:30;98236.78;;;-16.86;91.87
37068;BME280;22982;42.848;25.468;2023-02-10T03:30:33;98208.31;;;-16.87;93.23
37068;BME280;22982;42.848;25.468;2023-02-10T03:35:36;98215.94;;;-16.85;94.70
37068;BME280;22982;42.848;25.468;2023-02-10T03:40:40;98223.25;;;-17.21;94.82
37068;BME280;22982;42.848;25.468;2023-02-10T03:45:42;98204.69;;;-17.23;95.78
37068;BME280;22982;42.848;25.468;2023-02-10T03:50:45;98200.44;;;-17.02;96.03
37068;BME280;22982;42.848;25.468;2023-02-10T03:55:47;98180.88;;;-17.28;95.84
37068;BME280;22982;42.848;25.468;2023-02-10T04:00:55;98187.03;;;-17.02;95.32
37068;BME280;22982;42.848;25.468;2023-02-10T04:05:57;98202.84;;;-16.81;94.31
37068;BME280;22982;42.848;25.468;2023-02-10T04:10:59;98179.06;;;-16.52;92.84
37068;BME280;22982;42.848;25.468;2023-02-10T04:16:14;98204.63;;;-16.46;92.00
37068;BME280;22982;42.848;25.468;2023-02-10T04:21:17;98193.63;;;-16.70;90.99
37068;BME280;22982;42.848;25.468;2023-02-10T04:26:19;98169.78;;;-16.75;89.82
37068;BME280;22982;42.848;25.468;2023-02-10T04:31:21;98183.41;;;-16.62;88.61
37068;BME280;22982;42.848;25.468;2023-02-10T04:36:24;98162.97;;;-16.66;88.71
37068;BME280;22982;42.848;25.468;2023-02-10T04:41:26;98185.00;;;-16.96;88.73
37068;BME280;22982;42.848;25.468;2023-02-10T04:46:28;98192.25;;;-16.77;90.02
37068;BME280;22982;42.848;25.468;2023-02-10T04:51:30;98187.03;;;-16.58;88.67
37068;BME280;22982;42.848;25.468;2023-02-10T04:56:33;98170.16;;;-16.93;89.71
37068;BME280;22982;42.848;25.468;2023-02-10T05:01:35;98187.53;;;-16.62;88.29
37068;BME280;22982;42.848;25.468;2023-02-10T05:06:37;98182.97;;;-16.56;88.39
37068;BME280;22982;42.848;25.468;2023-02-10T05:11:40;98154.91;;;-16.96;88.57
37068;BME280;22982;42.848;25.468;2023-02-10T05:16:43;98147.19;;;-16.87;87.82
37068;BME280;22982;42.848;25.468;2023-02-10T05:21:45;98191.50;;;-16.54;87.48
37068;BME280;22982;42.848;25.468;2023-02-10T05:26:47;98185.00;;;-16.62;86.95
37068;BME280;22982;42.848;25.468;2023-02-10T05:31:50;98200.84;;;-16.63;86.81
37068;BME280;22982;42.848;25.468;2023-02-10T05:36:52;98155.00;;;-16.94;86.66
37068;BME280;22982;42.848;25.468;2023-02-10T05:41:57;98218.47;;;-16.73;86.61
37068;BME280;22982;42.848;25.468;2023-02-10T05:46:59;98207.06;;;-16.80;86.33
37068;BME280;22982;42.848;25.468;2023-02-10T05:52:01;98182.72;;;-16.93;87.35
37068;BME280;22982;42.848;25.468;2023-02-10T05:57:04;98195.00;;;-16.74;86.41
37068;BME280;22982;42.848;25.468;2023-02-10T06:02:06;98185.38;;;-16.58;85.38
37068;BME280;22982;42.848;25.468;2023-02-10T06:07:09;98191.44;;;-16.44;85.83
37068;BME280;22982;42.848;25.468;2023-02-10T06:12:11;98167.75;;;-16.35;83.65
37068;BME280;22982;42.848;25.468;2023-02-10T06:17:13;98193.13;;;-16.21;83.45
37068;BME280;22982;42.848;25.468;2023-02-10T06:22:15;98209.91;;;-16.09;83.04
37068;BME280;22982;42.848;25.468;2023-02-10T06:27:18;98195.75;;;-16.19;82.97
37068;BME280;22982;42.848;25.468;2023-02-10T06:32:20;98205.28;;;-16.49;84.65
37068;BME280;22982;42.848;25.468;2023-02-10T06:37:22;98201.06;;;-15.92;84.00
37068;BME280;22982;42.848;25.468;2023-02-10T06:42:26;98211.47;;;-15.64;82.88
37068;BME280;22982;42.848;25.468;2023-02-10T06:47:28;98216.19;;;-15.57;83.61
37068;BME280;22982;42.848;25.468;2023-02-10T06:52:30;98208.06;;;-15.29;83.12
37068;BME280;22982;42.848;25.468;2023-02-10T06:57:33;98217.91;;;-14.97;84.36
37068;BME280;22982;42.848;25.468;2023-02-10T07:02:37;98198.41;;;-14.99;83.26
37068;BME280;22982;42.848;25.468;2023-02-10T07:07:40;98197.09;;;-14.32;81.80
37068;BME280;22982;42.848;25.468;2023-02-10T07:12:42;98209.53;;;-12.77;81.41
37068;BME280;22982;42.848;25.468;2023-02-10T07:17:45;98177.28;;;-7.67;67.25
37068;BME280;22982;42.848;25.468;2023-02-10T07:22:48;98143.56;;;0.53;38.28
37068;BME280;22982;42.848;25.468;2023-02-10T07:27:50;98113.91;;;4.59;29.41
37068;BME280;22982;42.848;25.468;2023-02-10T07:32:52;98130.81;;;5.14;28.38
37068;BME280;22982;42.848;25.468;2023-02-10T07:37:55;98132.19;;;4.39;28.57
37068;BME280;22982;42.848;25.468;2023-02-10T07:42:57;98111.59;;;5.29;28.86
37068;BME280;22982;42.848;25.468;2023-02-10T07:48:11;98121.66;;;5.63;29.15
37068;BME280;22982;42.848;25.468;2023-02-10T07:53:13;98129.78;;;5.32;29.88
37068;BME280;22982;42.848;25.468;2023-02-10T07:58:16;98115.59;;;5.61;29.77
37068;BME280;22982;42.848;25.468;2023-02-10T08:03:18;98109.25;;;5.03;31.83
37068;BME280;22982;42.848;25.468;2023-02-10T08:08:20;98124.94;;;4.87;32.52
37068;BME280;22982;42.848;25.468;2023-02-10T08:13:22;98082.59;;;4.74;32.89
37068;BME280;22982;42.848;25.468;2023-02-10T08:18:25;98117.78;;;5.17;33.55
37068;BME280;22982;42.848;25.468;2023-02-10T08:23:27;98090.75;;;5.32;33.32
37068;BME280;22982;42.848;25.468;2023-02-10T08:28:29;98090.44;;;5.61;33.51
37068;BME280;22982;42.848;25.468;2023-02-10T08:33:36;98076.91;;;5.28;34.24
37068;BME280;22982;42.848;25.468;2023-02-10T08:38:50;98101.81;;;5.52;34.98
37068;BME280;22982;42.848;25.468;2023-02-10T08:43:53;98108.97;;;5.29;35.26
37068;BME280;22982;42.848;25.468;2023-02-10T08:48:55;98094.94;;;5.45;35.14
37068;BME280;22982;42.848;25.468;2023-02-10T08:54:00;98076.78;;;6.15;35.11
37068;BME280;22982;42.848;25.468;2023-02-10T08:59:03;98094.41;;;5.91;35.28
37068;BME280;22982;42.848;25.468;2023-02-10T09:04:07;98073.66;;;5.85;35.65
37068;BME280;22982;42.848;25.468;2023-02-10T09:09:14;98082.38;;;6.49;35.79
37068;BME280;22982;42.848;25.468;2023-02-10T09:14:16;98069.34;;;7.02;35.92
37068;BME280;22982;42.848;25.468;2023-02-10T09:19:18;98073.28;;;6.75;37.18
37068;BME280;22982;42.848;25.468;2023-02-10T09:24:22;98065.47;;;6.74;35.55
37068;BME280;22982;42.848;25.468;2023-02-10T09:29:25;98044.13;;;6.50;34.45
37068;BME280;22982;42.848;25.468;2023-02-10T09:34:27;98050.41;;;7.41;34.95
37068;BME280;22982;42.848;25.468;2023-02-10T09:39:31;98044.00;;;7.11;33.72
37068;BME280;22982;42.848;25.468;2023-02-10T09:44:36;98032.09;;;6.96;34.56
37068;BME280;22982;42.848;25.468;2023-02-10T09:54:45;98016.09;;;7.59;32.07
37068;BME280;22982;42.848;25.468;2023-02-10T09:59:51;98013.47;;;8.01;32.32
37068;BME280;22982;42.848;25.468;2023-02-10T10:04:56;98000.69;;;8.27;31.06
37068;BME280;22982;42.848;25.468;2023-02-10T10:15:37;97980.75;;;8.94;31.01
37068;BME280;22982;42.848;25.468;2023-02-10T10:21:05;97998.91;;;8.66;31.14
37068;BME280;22982;42.848;25.468;2023-02-10T10:26:15;98008.69;;;8.20;31.71
37068;BME280;22982;42.848;25.468;2023-02-10T10:31:39;97991.44;;;8.51;32.50
37068;BME280;22982;42.848;25.468;2023-02-10T10:36:49;97982.94;;;8.42;32.12
37068;BME280;22982;42.848;25.468;2023-02-10T10:41:54;97975.28;;;9.04;31.97
37068;BME280;22982;42.848;25.468;2023-02-10T10:52:34;97957.88;;;9.01;32.13
37068;BME280;22982;42.848;25.468;2023-02-10T10:57:40;97957.69;;;8.76;31.51
37068;BME280;22982;42.848;25.468;2023-02-10T11:07:56;97980.84;;;7.38;34.19
37068;BME280;22982;42.848;25.468;2023-02-10T11:12:59;97934.03;;;6.87;33.73
37068;BME280;22982;42.848;25.468;2023-02-10T11:18:06;97948.44;;;6.05;36.41
37068;BME280;22982;42.848;25.468;2023-02-10T11:23:16;97950.56;;;5.06;38.66
37068;BME280;22982;42.848;25.468;2023-02-10T11:28:21;97943.81;;;4.89;39.16
37068;BME280;22982;42.848;25.468;2023-02-10T11:33:30;97938.38;;;4.24;38.72
37068;BME280;22982;42.848;25.468;2023-02-10T11:38:34;97933.72;;;4.63;38.82
37068;BME280;22982;42.848;25.468;2023-02-10T11:43:45;97939.19;;;4.32;39.39
37068;BME280;22982;42.848;25.468;2023-02-10T11:48:59;97922.72;;;4.32;38.43
37068;BME280;22982;42.848;25.468;2023-02-10T11:54:02;97929.00;;;4.06;39.08
37068;BME280;22982;42.848;25.468;2023-02-10T11:59:35;97925.03;;;3.57;40.31
37068;BME280;22982;42.848;25.468;2023-02-10T12:09:53;97932.09;;;3.31;42.13
37068;BME280;22982;42.848;25.468;2023-02-10T12:20:48;97918.91;;;3.72;41.31
37068;BME280;22982;42.848;25.468;2023-02-10T12:26:15;97919.13;;;3.31;39.82
37068;BME280;22982;42.848;25.468;2023-02-10T12:36:48;97914.09;;;2.98;42.11
37068;BME280;22982;42.848;25.468;2023-02-10T12:47:58;97910.69;;;2.82;41.96
37068;BME280;22982;42.848;25.468;2023-02-10T12:53:12;97894.41;;;2.25;43.91
37068;BME280;22982;42.848;25.468;2023-02-10T12:58:20;97898.72;;;2.37;43.69
37068;BME280;22982;42.848;25.468;2023-02-10T13:03:31;97892.63;;;2.58;42.43
37068;BME280;22982;42.848;25.468;2023-02-10T13:08:42;97911.66;;;2.27;45.04
37068;BME280;22982;42.848;25.468;2023-02-10T13:13:47;97901.28;;;2.41;43.10
37068;BME280;22982;42.848;25.468;2023-02-10T13:24:21;97890.97;;;1.77;45.48
37068;BME280;22982;42.848;25.468;2023-02-10T13:34:56;97887.50;;;1.75;45.22
37068;BME280;22982;42.848;25.468;2023-02-10T13:40:03;97897.00;;;1.56;45.84
37068;BME280;22982;42.848;25.468;2023-02-10T14:00:21;97873.66;;;1.26;48.11
37068;BME280;22982;42.848;25.468;2023-02-10T14:05:33;97873.59;;;1.05;48.18
37068;BME280;22982;42.848;25.468;2023-02-10T14:10:35;97887.38;;;1.02;51.07
37068;BME280;22982;42.848;25.468;2023-02-10T14:15:39;97902.81;;;0.88;51.95
37068;BME280;22982;42.848;25.468;2023-02-10T14:20:44;97891.56;;;0.71;52.21
37068;BME280;22982;42.848;25.468;2023-02-10T14:25:47;97877.66;;;0.44;55.55
37068;BME280;22982;42.848;25.468;2023-02-10T14:31:04;97893.13;;;0.49;54.10
37068;BME280;22982;42.848;25.468;2023-02-10T14:36:17;97911.28;;;0.63;55.04
37068;BME280;22982;42.848;25.468;2023-02-10T14:41:20;97911.25;;;0.53;54.85
37068;BME280;22982;42.848;25.468;2023-02-10T14:46:25;97899.03;;;0.25;55.61
37068;BME280;22982;42.848;25.468;2023-02-10T14:51:29;97914.38;;;0.11;55.65
37068;BME280;22982;42.848;25.468;2023-02-10T14:56:32;97905.50;;;-0.24;57.50
37068;BME280;22982;42.848;25.468;2023-02-10T15:01:35;97900.25;;;-0.37;59.58
37068;BME280;22982;42.848;25.468;2023-02-10T15:06:38;97926.75;;;-0.49;63.05
37068;BME280;22982;42.848;25.468;2023-02-10T15:11:54;97912.63;;;-0.87;65.14
37068;BME280;22982;42.848;25.468;2023-02-10T15:17:18;97948.69;;;-0.87;63.62
37068;BME280;22982;42.848;25.468;2023-02-10T15:33:22;97953.28;;;-1.31;72.29
37068;BME280;22982;42.848;25.468;2023-02-10T15:38:28;97954.84;;;-1.41;72.08
37068;BME280;22982;42.848;25.468;2023-02-10T15:43:30;97960.50;;;-1.65;75.46
37068;BME280;22982;42.848;25.468;2023-02-10T15:48:32;97968.81;;;-1.82;77.85
37068;BME280;22982;42.848;25.468;2023-02-10T15:53:40;97955.25;;;-2.25;78.52
37068;BME280;22982;42.848;25.468;2023-02-10T15:58:42;97982.41;;;-2.39;80.24
37068;BME280;22982;42.848;25.468;2023-02-10T16:03:44;97983.00;;;-2.54;81.79
37068;BME280;22982;42.848;25.468;2023-02-10T16:08:47;97978.97;;;-2.84;81.97
37068;BME280;22982;42.848;25.468;2023-02-10T16:13:49;97980.41;;;-2.98;82.30
37068;BME280;22982;42.848;25.468;2023-02-10T16:18:51;97992.63;;;-3.28;82.63
37068;BME280;22982;42.848;25.468;2023-02-10T16:23:53;97986.00;;;-3.57;84.01
37068;BME280;22982;42.848;25.468;2023-02-10T16:28:55;98007.44;;;-3.90;86.28
37068;BME280;22982;42.848;25.468;2023-02-10T16:33:58;98002.22;;;-3.93;87.04
37068;BME280;22982;42.848;25.468;2023-02-10T16:39:00;98005.28;;;-4.07;86.46
37068;BME280;22982;42.848;25.468;2023-02-10T16:44:03;98010.13;;;-4.19;85.88
37068;BME280;22982;42.848;25.468;2023-02-10T16:49:06;98020.09;;;-4.28;88.44
37068;BME280;22982;42.848;25.468;2023-02-10T16:54:09;98029.00;;;-4.47;89.39
37068;BME280;22982;42.848;25.468;2023-02-10T16:59:16;98028.28;;;-4.73;90.10
37068;BME280;22982;42.848;25.468;2023-02-10T17:04:19;98036.28;;;-4.93;90.65
37068;BME280;22982;42.848;25.468;2023-02-10T17:09:23;98038.22;;;-5.14;92.02
37068;BME280;22982;42.848;25.468;2023-02-10T17:14:26;98048.34;;;-5.17;92.60
37068;BME280;22982;42.848;25.468;2023-02-10T17:19:28;98029.72;;;-5.41;93.44
37068;BME280;22982;42.848;25.468;2023-02-10T17:24:33;98031.66;;;-5.61;93.13
37068;BME280;22982;42.848;25.468;2023-02-10T17:29:36;98038.25;;;-5.96;94.26
37068;BME280;22982;42.848;25.468;2023-02-10T17:34:39;98052.31;;;-5.82;94.84
37068;BME280;22982;42.848;25.468;2023-02-10T17:39:41;98033.88;;;-5.99;95.62
37068;BME280;22982;42.848;25.468;2023-02-10T17:44:44;98028.00;;;-6.23;97.94
37068;BME280;22982;42.848;25.468;2023-02-10T17:49:46;98020.09;;;-6.29;97.97
37068;BME280;22982;42.848;25.468;2023-02-10T17:54:48;98035.59;;;-6.49;97.23
37068;BME280;22982;42.848;25.468;2023-02-10T17:59:50;98037.56;;;-6.66;100.00
37068;BME280;22982;42.848;25.468;2023-02-10T18:04:53;98039.50;;;-6.83;100.00
37068;BME280;22982;42.848;25.468;2023-02-10T18:09:55;98045.78;;;-6.97;100.00
37068;BME280;22982;42.848;25.468;2023-02-10T18:14:57;98044.31;;;-6.90;100.00
37068;BME280;22982;42.848;25.468;2023-02-10T18:19:59;98044.03;;;-6.98;100.00
37068;BME280;22982;42.848;25.468;2023-02-10T18:25:02;98037.91;;;-7.03;100.00
37068;BME280;22982;42.848;25.468;2023-02-10T18:30:04;98071.00;;;-6.82;100.00
37068;BME280;22982;42.848;25.468;2023-02-10T18:35:10;98070.41;;;-6.98;98.33
37068;BME280;22982;42.848;25.468;2023-02-10T18:40:13;98084.72;;;-7.24;99.81
37068;BME280;22982;42.848;25.468;2023-02-10T18:45:15;98075.41;;;-7.44;98.97
37068;BME280;22982;42.848;25.468;2023-02-10T18:50:18;98075.06;;;-7.54;99.48
37068;BME280;22982;42.848;25.468;2023-02-10T18:55:20;98105.97;;;-7.46;98.96
37068;BME280;22982;42.848;25.468;2023-02-10T19:00:22;98100.06;;;-7.66;99.45
37068;BME280;22982;42.848;25.468;2023-02-10T19:05:24;98097.25;;;-7.72;98.01
37068;BME280;22982;42.848;25.468;2023-02-10T19:10:30;98080.72;;;-8.03;97.77
37068;BME280;22982;42.848;25.468;2023-02-10T19:16:08;98094.94;;;-8.08;99.72
37068;BME280;22982;42.848;25.468;2023-02-10T19:21:16;98038.63;;;-8.56;98.54
37068;BME280;22982;42.848;25.468;2023-02-10T19:26:18;98076.81;;;-8.35;97.95
37068;BME280;22982;42.848;25.468;2023-02-10T19:31:34;98060.72;;;-8.75;100.00
37068;BME280;22982;42.848;25.468;2023-02-10T19:36:36;98080.81;;;-8.81;100.00
37068;BME280;22982;42.848;25.468;2023-02-10T19:41:39;98084.25;;;-8.98;100.00
37068;BME280;22982;42.848;25.468;2023-02-10T19:46:42;98060.13;;;-9.26;100.00
37068;BME280;22982;42.848;25.468;2023-02-10T19:51:48;98093.56;;;-8.99;100.00
37068;BME280;22982;42.848;25.468;2023-02-10T19:56:50;98087.72;;;-9.16;100.00
37068;BME280;22982;42.848;25.468;2023-02-10T20:01:53;98093.59;;;-9.17;100.00
37068;BME280;22982;42.848;25.468;2023-02-10T20:06:55;98065.22;;;-9.26;100.00
37068;BME280;22982;42.848;25.468;2023-02-10T20:11:58;98078.25;;;-9.00;100.00
37068;BME280;22982;42.848;25.468;2023-02-10T20:17:00;98073.94;;;-9.21;98.38
37068;BME280;22982;42.848;25.468;2023-02-10T20:22:02;98090.84;;;-9.39;98.86
37068;BME280;22982;42.848;25.468;2023-02-10T20:27:05;98070.59;;;-9.56;100.00
37068;BME280;22982;42.848;25.468;2023-02-10T20:32:07;98085.56;;;-9.62;100.00
37068;BME280;22982;42.848;25.468;2023-02-10T20:37:10;98079.47;;;-9.66;100.00
37068;BME280;22982;42.848;25.468;2023-02-10T20:42:12;98067.41;;;-9.88;100.00
37068;BME280;22982;42.848;25.468;2023-02-10T20:47:14;98055.06;;;-9.98;100.00
37068;BME280;22982;42.848;25.468;2023-02-10T20:52:20;98043.03;;;-10.02;100.00
37068;BME280;22982;42.848;25.468;2023-02-10T20:57:25;98067.41;;;-9.88;100.00
37068;BME280;22982;42.848;25.468;2023-02-10T21:02:27;98053.88;;;-10.05;100.00
37068;BME280;22982;42.848;25.468;2023-02-10T21:07:30;98081.31;;;-9.97;100.00
37068;BME280;22982;42.848;25.468;2023-02-10T21:12:36;98084.63;;;-10.16;98.95
37068;BME280;22982;42.848;25.468;2023-02-10T21:17:41;98065.84;;;-10.20;97.65
37068;BME280;22982;42.848;25.468;2023-02-10T21:22:48;98086.75;;;-10.42;97.31
37068;BME280;22982;42.848;25.468;2023-02-10T21:27:51;98021.28;;;-10.84;97.50
37068;BME280;22982;42.848;25.468;2023-02-10T21:32:53;98051.69;;;-10.67;98.71
37068;BME280;22982;42.848;25.468;2023-02-10T21:37:55;98063.56;;;-10.83;98.89
37068;BME280;22982;42.848;25.468;2023-02-10T21:42:59;98055.22;;;-11.13;99.85
37068;BME280;22982;42.848;25.468;2023-02-10T21:48:01;98090.16;;;-11.07;99.29
37068;BME280;22982;42.848;25.468;2023-02-10T21:53:04;98082.13;;;-11.15;99.59
37068;BME280;22982;42.848;25.468;2023-02-10T21:58:07;98061.19;;;-11.27;99.12
37068;BME280;22982;42.848;25.468;2023-02-10T22:03:09;98076.78;;;-11.36;98.83
37068;BME280;22982;42.848;25.468;2023-02-10T22:08:17;98047.47;;;-11.47;98.51
37068;BME280;22982;42.848;25.468;2023-02-10T22:13:38;98086.59;;;-11.11;97.23
37068;BME280;22982;42.848;25.468;2023-02-10T22:18:41;98090.63;;;-11.29;96.04
37068;BME280;22982;42.848;25.468;2023-02-10T22:23:45;98081.53;;;-11.11;96.33
37068;BME280;22982;42.848;25.468;2023-02-10T22:28:48;98093.72;;;-11.35;96.17
37068;BME280;22982;42.848;25.468;2023-02-10T22:33:53;98093.97;;;-11.77;96.32
37068;BME280;22982;42.848;25.468;2023-02-10T22:38:56;98082.28;;;-11.60;96.80
37068;BME280;22982;42.848;25.468;2023-02-10T22:44:00;98084.75;;;-11.45;95.01
37068;BME280;22982;42.848;25.468;2023-02-10T22:49:03;98073.19;;;-11.56;95.49
37068;BME280;22982;42.848;25.468;2023-02-10T22:54:07;98061.50;;;-11.69;95.55
37068;BME280;22982;42.848;25.468;2023-02-10T22:59:11;98072.78;;;-11.79;95.89
37068;BME280;22982;42.848;25.468;2023-02-10T23:04:15;98094.78;;;-11.78;95.46
37068;BME280;22982;42.848;25.468;2023-02-10T23:09:18;98064.41;;;-11.78;95.19
37068;BME280;22982;42.848;25.468;2023-02-10T23:14:20;98081.19;;;-12.09;95.52
37068;BME280;22982;42.848;25.468;2023-02-10T23:19:24;98095.13;;;-12.31;99.17
37068;BME280;22982;42.848;25.468;2023-02-10T23:24:29;98086.06;;;-12.27;99.24
37068;BME280;22982;42.848;25.468;2023-02-10T23:29:31;98090.59;;;-12.22;99.16
37068;BME280;22982;42.848;25.468;2023-02-10T23:34:34;98083.22;;;-12.19;96.83
37068;BME280;22982;42.848;25.468;2023-02-10T23:39:36;98075.88;;;-12.29;96.43
37068;BME280;22982;42.848;25.468;2023-02-10T23:44:38;98070.53;;;-12.48;97.68
37068;BME280;22982;42.848;25.468;2023-02-10T23:49:40;98077.53;;;-12.29;95.81
37068;BME280;22982;42.848;25.468;2023-02-10T23:54:43;98062.31;;;-12.59;98.86
37068;BME280;22982;42.848;25.468;2023-02-10T23:59:45;98009.56;;;-12.98;100.00
